sensor_id;sensor_type;location;lat;lon;timestamp;P1;durP1;ratioP1;P2;durP2;ratioP2
76403;SDS011;65232;48.358;2.122;2023-04-03T00:00:10;14.88;;;10.88;;
76403;SDS011;65232;48.358;2.122;2023-04-03T00:00:36;13.48;;;10.57;;
76403;SDS011;65232;48.358;2.122;2023-04-03T00:01:02;12.82;;;10.32;;
76403;SDS011;65232;48.358;2.122;2023-04-03T00:01:28;14.82;;;10.57;;
76403;SDS011;65232;48.358;2.122;2023-04-03T00:01:53;14.93;;;10.70;;
76403;SDS011;65232;48.358;2.122;2023-04-03T00:02:19;14.52;;;10.68;;
76403;SDS011;65232;48.358;2.122;2023-04-03T00:02:44;15.73;;;10.57;;
76403;SDS011;65232;48.358;2.122;2023-04-03T00:03:10;14.45;;;10.48;;
76403;SDS011;65232;48.358;2.122;2023-04-03T00:03:35;14.32;;;10.13;;
76403;SDS011;65232;48.358;2.122;2023-04-03T00:04:01;14.00;;;10.07;;
76403;SDS011;65232;48.358;2.122;2023-04-03T00:04:27;14.63;;;9.88;;
76403;SDS011;65232;48.358;2.122;2023-04-03T00:04:52;14.90;;;10.52;;
76403;SDS011;65232;48.358;2.122;2023-04-03T00:05:17;14.50;;;10.20;;
76403;SDS011;65232;48.358;2.122;2023-04-03T00:05:43;12.82;;;9.85;;
76403;SDS011;65232;48.358;2.122;2023-04-03T00:06:09;13.27;;;9.48;;
76403;SDS011;65232;48.358;2.122;2023-04-03T00:06:36;10.93;;;8.65;;
76403;SDS011;65232;48.358;2.122;2023-04-03T00:07:01;12.77;;;8.90;;
76403;SDS011;65232;48.358;2.122;2023-04-03T00:07:27;12.82;;;9.63;;
76403;SDS011;65232;48.358;2.122;2023-04-03T00:07:52;13.75;;;9.88;;
76403;SDS011;65232;48.358;2.122;2023-04-03T00:08:17;13.27;;;9.52;;
76403;SDS011;65232;48.358;2.122;2023-04-03T00:08:43;12.00;;;9.50;;
76403;SDS011;65232;48.358;2.122;2023-04-03T00:09:09;11.55;;;8.63;;
76403;SDS011;65232;48.358;2.122;2023-04-03T00:09:34;11.63;;;8.43;;
76403;SDS011;65232;48.358;2.122;2023-04-03T00:09:59;12.10;;;9.40;;
76403;SDS011;65232;48.358;2.122;2023-04-03T00:10:25;11.07;;;8.85;;
76403;SDS011;65232;48.358;2.122;2023-04-03T00:10:50;13.02;;;8.88;;
76403;SDS011;65232;48.358;2.122;2023-04-03T00:11:16;11.70;;;8.95;;
76403;SDS011;65232;48.358;2.122;2023-04-03T00:11:42;13.68;;;9.80;;
76403;SDS011;65232;48.358;2.122;2023-04-03T00:12:07;12.30;;;8.50;;
76403;SDS011;65232;48.358;2.122;2023-04-03T00:12:33;12.60;;;8.82;;
76403;SDS011;65232;48.358;2.122;2023-04-03T00:12:58;10.95;;;8.00;;
76403;SDS011;65232;48.358;2.122;2023-04-03T00:13:24;12.18;;;8.38;;
76403;SDS011;65232;48.358;2.122;2023-04-03T00:13:50;10.85;;;8.10;;
76403;SDS011;65232;48.358;2.122;2023-04-03T00:14:15;11.05;;;8.65;;
76403;SDS011;65232;48.358;2.122;2023-04-03T00:14:41;10.73;;;7.70;;
76403;SDS011;65232;48.358;2.122;2023-04-03T00:15:06;11.10;;;7.90;;
76403;SDS011;65232;48.358;2.122;2023-04-03T00:15:32;10.90;;;8.23;;
76403;SDS011;65232;48.358;2.122;2023-04-03T00:15:59;11.05;;;8.20;;
76403;SDS011;65232;48.358;2.122;2023-04-03T00:16:25;12.77;;;7.72;;
76403;SDS011;65232;48.358;2.122;2023-04-03T00:16:51;10.95;;;8.50;;
76403;SDS011;65232;48.358;2.122;2023-04-03T00:17:16;9.90;;;8.18;;
76403;SDS011;65232;48.358;2.122;2023-04-03T00:17:41;11.52;;;8.02;;
76403;SDS011;65232;48.358;2.122;2023-04-03T00:18:07;10.20;;;7.47;;
76403;SDS011;65232;48.358;2.122;2023-04-03T00:18:32;9.85;;;7.82;;
76403;SDS011;65232;48.358;2.122;2023-04-03T00:18:58;11.18;;;8.13;;
76403;SDS011;65232;48.358;2.122;2023-04-03T00:19:23;12.70;;;8.63;;
76403;SDS011;65232;48.358;2.122;2023-04-03T00:19:49;12.38;;;8.25;;
76403;SDS011;65232;48.358;2.122;2023-04-03T00:20:14;10.52;;;8.10;;
76403;SDS011;65232;48.358;2.122;2023-04-03T00:20:40;10.00;;;7.95;;
76403;SDS011;65232;48.358;2.122;2023-04-03T00:21:06;14.32;;;7.85;;
76403;SDS011;65232;48.358;2.122;2023-04-03T00:21:32;8.70;;;6.45;;
76403;SDS011;65232;48.358;2.122;2023-04-03T00:21:58;10.75;;;8.05;;
76403;SDS011;65232;48.358;2.122;2023-04-03T00:22:23;10.38;;;7.82;;
76403;SDS011;65232;48.358;2.122;2023-04-03T00:22:51;9.38;;;7.47;;
76403;SDS011;65232;48.358;2.122;2023-04-03T00:23:16;10.55;;;7.38;;
76403;SDS011;65232;48.358;2.122;2023-04-03T00:23:42;12.45;;;7.85;;
76403;SDS011;65232;48.358;2.122;2023-04-03T00:24:08;11.43;;;7.57;;
76403;SDS011;65232;48.358;2.122;2023-04-03T00:24:33;10.50;;;7.93;;
76403;SDS011;65232;48.358;2.122;2023-04-03T00:24:58;11.85;;;7.57;;
76403;SDS011;65232;48.358;2.122;2023-04-03T00:25:24;11.35;;;7.90;;
76403;SDS011;65232;48.358;2.122;2023-04-03T00:25:50;10.27;;;7.57;;
76403;SDS011;65232;48.358;2.122;2023-04-03T00:26:16;9.98;;;7.32;;
76403;SDS011;65232;48.358;2.122;2023-04-03T00:26:41;12.00;;;7.88;;
76403;SDS011;65232;48.358;2.122;2023-04-03T00:27:07;12.48;;;7.80;;
76403;SDS011;65232;48.358;2.122;2023-04-03T00:27:32;10.15;;;7.07;;
76403;SDS011;65232;48.358;2.122;2023-04-03T00:27:58;11.10;;;7.53;;
76403;SDS011;65232;48.358;2.122;2023-04-03T00:28:23;10.10;;;7.32;;
76403;SDS011;65232;48.358;2.122;2023-04-03T00:28:49;10.75;;;7.72;;
76403;SDS011;65232;48.358;2.122;2023-04-03T00:29:14;9.25;;;7.63;;
76403;SDS011;65232;48.358;2.122;2023-04-03T00:29:40;9.60;;;7.68;;
76403;SDS011;65232;48.358;2.122;2023-04-03T00:30:06;10.07;;;7.20;;
76403;SDS011;65232;48.358;2.122;2023-04-03T00:30:35;9.35;;;6.85;;
76403;SDS011;65232;48.358;2.122;2023-04-03T00:31:00;9.45;;;7.38;;
76403;SDS011;65232;48.358;2.122;2023-04-03T00:31:26;9.63;;;7.28;;
76403;SDS011;65232;48.358;2.122;2023-04-03T00:31:52;10.98;;;7.80;;
76403;SDS011;65232;48.358;2.122;2023-04-03T00:32:17;8.25;;;6.68;;
76403;SDS011;65232;48.358;2.122;2023-04-03T00:32:43;10.15;;;7.57;;
76403;SDS011;65232;48.358;2.122;2023-04-03T00:33:11;10.23;;;8.02;;
76403;SDS011;65232;48.358;2.122;2023-04-03T00:33:37;9.93;;;7.78;;
76403;SDS011;65232;48.358;2.122;2023-04-03T00:34:03;12.57;;;7.63;;
76403;SDS011;65232;48.358;2.122;2023-04-03T00:34:28;9.43;;;7.50;;
76403;SDS011;65232;48.358;2.122;2023-04-03T00:34:54;10.15;;;7.78;;
76403;SDS011;65232;48.358;2.122;2023-04-03T00:35:20;11.43;;;7.30;;
76403;SDS011;65232;48.358;2.122;2023-04-03T00:35:47;12.73;;;7.68;;
76403;SDS011;65232;48.358;2.122;2023-04-03T00:36:13;10.35;;;7.60;;
76403;SDS011;65232;48.358;2.122;2023-04-03T00:36:39;9.82;;;7.38;;
76403;SDS011;65232;48.358;2.122;2023-04-03T00:37:04;9.23;;;7.50;;
76403;SDS011;65232;48.358;2.122;2023-04-03T00:37:30;9.25;;;6.90;;
76403;SDS011;65232;48.358;2.122;2023-04-03T00:37:56;10.05;;;7.70;;
76403;SDS011;65232;48.358;2.122;2023-04-03T00:38:21;11.90;;;7.57;;
76403;SDS011;65232;48.358;2.122;2023-04-03T00:38:47;11.27;;;7.35;;
76403;SDS011;65232;48.358;2.122;2023-04-03T00:39:12;9.10;;;7.38;;
76403;SDS011;65232;48.358;2.122;2023-04-03T00:39:37;9.18;;;6.97;;
76403;SDS011;65232;48.358;2.122;2023-04-03T00:40:03;10.05;;;7.85;;
76403;SDS011;65232;48.358;2.122;2023-04-03T00:40:58;9.38;;;6.78;;
76403;SDS011;65232;48.358;2.122;2023-04-03T00:41:23;10.52;;;7.13;;
76403;SDS011;65232;48.358;2.122;2023-04-03T00:41:50;10.05;;;7.43;;
76403;SDS011;65232;48.358;2.122;2023-04-03T00:42:15;9.93;;;7.18;;
76403;SDS011;65232;48.358;2.122;2023-04-03T00:42:42;9.50;;;7.18;;
76403;SDS011;65232;48.358;2.122;2023-04-03T00:43:10;10.38;;;7.43;;
76403;SDS011;65232;48.358;2.122;2023-04-03T00:43:38;9.35;;;7.20;;
76403;SDS011;65232;48.358;2.122;2023-04-03T00:44:23;7.97;;;6.45;;
76403;SDS011;65232;48.358;2.122;2023-04-03T00:45:36;10.00;;;6.60;;
76403;SDS011;65232;48.358;2.122;2023-04-03T00:46:04;9.68;;;7.30;;
76403;SDS011;65232;48.358;2.122;2023-04-03T00:46:29;9.85;;;7.00;;
76403;SDS011;65232;48.358;2.122;2023-04-03T00:46:55;8.77;;;6.55;;
76403;SDS011;65232;48.358;2.122;2023-04-03T00:47:20;10.20;;;7.65;;
76403;SDS011;65232;48.358;2.122;2023-04-03T00:48:17;8.82;;;6.35;;
76403;SDS011;65232;48.358;2.122;2023-04-03T00:48:46;11.43;;;7.13;;
76403;SDS011;65232;48.358;2.122;2023-04-03T00:49:13;8.40;;;6.10;;
76403;SDS011;65232;48.358;2.122;2023-04-03T00:49:38;8.50;;;6.45;;
76403;SDS011;65232;48.358;2.122;2023-04-03T00:50:05;8.57;;;7.13;;
76403;SDS011;65232;48.358;2.122;2023-04-03T00:50:33;8.60;;;6.30;;
76403;SDS011;65232;48.358;2.122;2023-04-03T00:51:02;9.68;;;6.68;;
76403;SDS011;65232;48.358;2.122;2023-04-03T00:51:30;9.40;;;6.82;;
76403;SDS011;65232;48.358;2.122;2023-04-03T00:51:56;8.73;;;6.40;;
76403;SDS011;65232;48.358;2.122;2023-04-03T00:52:25;11.05;;;7.13;;
76403;SDS011;65232;48.358;2.122;2023-04-03T00:52:53;8.50;;;6.53;;
76403;SDS011;65232;48.358;2.122;2023-04-03T00:53:21;10.25;;;6.93;;
76403;SDS011;65232;48.358;2.122;2023-04-03T00:53:51;8.25;;;5.95;;
76403;SDS011;65232;48.358;2.122;2023-04-03T00:54:23;8.30;;;6.75;;
76403;SDS011;65232;48.358;2.122;2023-04-03T00:54:50;8.93;;;6.18;;
76403;SDS011;65232;48.358;2.122;2023-04-03T00:55:17;9.60;;;6.47;;
76403;SDS011;65232;48.358;2.122;2023-04-03T00:55:43;9.20;;;7.05;;
76403;SDS011;65232;48.358;2.122;2023-04-03T00:56:09;9.32;;;6.35;;
76403;SDS011;65232;48.358;2.122;2023-04-03T00:56:37;9.60;;;7.18;;
76403;SDS011;65232;48.358;2.122;2023-04-03T00:57:03;9.85;;;6.90;;
76403;SDS011;65232;48.358;2.122;2023-04-03T00:57:31;8.88;;;6.47;;
76403;SDS011;65232;48.358;2.122;2023-04-03T00:57:57;9.38;;;7.35;;
76403;SDS011;65232;48.358;2.122;2023-04-03T00:58:27;10.15;;;6.88;;
76403;SDS011;65232;48.358;2.122;2023-04-03T00:58:59;9.48;;;6.90;;
76403;SDS011;65232;48.358;2.122;2023-04-03T00:59:30;9.63;;;6.90;;
76403;SDS011;65232;48.358;2.122;2023-04-03T00:59:59;8.55;;;6.65;;
76403;SDS011;65232;48.358;2.122;2023-04-03T01:00:30;9.32;;;6.32;;
76403;SDS011;65232;48.358;2.122;2023-04-03T01:00:57;10.13;;;6.78;;
76403;SDS011;65232;48.358;2.122;2023-04-03T01:01:25;9.63;;;6.43;;
76403;SDS011;65232;48.358;2.122;2023-04-03T01:01:52;9.48;;;6.70;;
76403;SDS011;65232;48.358;2.122;2023-04-03T01:02:22;10.82;;;6.28;;
76403;SDS011;65232;48.358;2.122;2023-04-03T01:02:48;9.80;;;7.05;;
76403;SDS011;65232;48.358;2.122;2023-04-03T01:03:15;10.30;;;6.75;;
76403;SDS011;65232;48.358;2.122;2023-04-03T01:03:40;8.68;;;6.72;;
76403;SDS011;65232;48.358;2.122;2023-04-03T01:04:24;10.00;;;7.10;;
76403;SDS011;65232;48.358;2.122;2023-04-03T01:04:56;8.93;;;7.07;;
76403;SDS011;65232;48.358;2.122;2023-04-03T01:05:21;10.70;;;6.60;;
76403;SDS011;65232;48.358;2.122;2023-04-03T01:05:47;9.57;;;7.18;;
76403;SDS011;65232;48.358;2.122;2023-04-03T01:06:13;11.60;;;7.55;;
76403;SDS011;65232;48.358;2.122;2023-04-03T01:06:42;10.63;;;7.18;;
76403;SDS011;65232;48.358;2.122;2023-04-03T01:07:11;10.45;;;7.43;;
76403;SDS011;65232;48.358;2.122;2023-04-03T01:07:37;9.43;;;6.82;;
76403;SDS011;65232;48.358;2.122;2023-04-03T01:08:03;9.77;;;7.70;;
76403;SDS011;65232;48.358;2.122;2023-04-03T01:08:30;9.18;;;7.25;;
76403;SDS011;65232;48.358;2.122;2023-04-03T01:08:56;9.73;;;7.22;;
76403;SDS011;65232;48.358;2.122;2023-04-03T01:09:22;9.10;;;7.15;;
76403;SDS011;65232;48.358;2.122;2023-04-03T01:09:48;10.27;;;7.35;;
76403;SDS011;65232;48.358;2.122;2023-04-03T01:10:17;11.15;;;7.03;;
76403;SDS011;65232;48.358;2.122;2023-04-03T01:10:45;9.18;;;6.97;;
76403;SDS011;65232;48.358;2.122;2023-04-03T01:11:12;9.35;;;7.35;;
76403;SDS011;65232;48.358;2.122;2023-04-03T01:11:38;11.80;;;7.78;;
76403;SDS011;65232;48.358;2.122;2023-04-03T01:12:20;10.38;;;7.80;;
76403;SDS011;65232;48.358;2.122;2023-04-03T01:12:54;10.27;;;7.22;;
76403;SDS011;65232;48.358;2.122;2023-04-03T01:13:24;10.77;;;8.00;;
76403;SDS011;65232;48.358;2.122;2023-04-03T01:13:51;14.50;;;8.35;;
76403;SDS011;65232;48.358;2.122;2023-04-03T01:14:17;10.15;;;7.68;;
76403;SDS011;65232;48.358;2.122;2023-04-03T01:15:11;10.65;;;6.93;;
76403;SDS011;65232;48.358;2.122;2023-04-03T01:15:45;10.68;;;7.70;;
76403;SDS011;65232;48.358;2.122;2023-04-03T01:16:10;11.85;;;7.70;;
76403;SDS011;65232;48.358;2.122;2023-04-03T01:16:35;11.13;;;7.88;;
76403;SDS011;65232;48.358;2.122;2023-04-03T01:17:01;11.27;;;8.40;;
76403;SDS011;65232;48.358;2.122;2023-04-03T01:17:37;9.30;;;7.82;;
76403;SDS011;65232;48.358;2.122;2023-04-03T01:18:05;11.82;;;7.50;;
76403;SDS011;65232;48.358;2.122;2023-04-03T01:18:30;10.93;;;8.10;;
76403;SDS011;65232;48.358;2.122;2023-04-03T01:18:57;11.35;;;8.38;;
76403;SDS011;65232;48.358;2.122;2023-04-03T01:19:25;13.43;;;8.38;;
76403;SDS011;65232;48.358;2.122;2023-04-03T01:19:53;10.57;;;7.90;;
76403;SDS011;65232;48.358;2.122;2023-04-03T01:20:45;13.05;;;7.93;;
76403;SDS011;65232;48.358;2.122;2023-04-03T01:24:54;11.85;;;7.03;;
76403;SDS011;65232;48.358;2.122;2023-04-03T01:25:19;10.75;;;8.10;;
76403;SDS011;65232;48.358;2.122;2023-04-03T01:25:46;11.68;;;8.00;;
76403;SDS011;65232;48.358;2.122;2023-04-03T01:26:14;10.30;;;7.80;;
76403;SDS011;65232;48.358;2.122;2023-04-03T01:26:39;12.15;;;8.40;;
76403;SDS011;65232;48.358;2.122;2023-04-03T01:27:06;12.00;;;8.40;;
76403;SDS011;65232;48.358;2.122;2023-04-03T01:27:34;10.75;;;8.18;;
76403;SDS011;65232;48.358;2.122;2023-04-03T01:27:59;11.73;;;8.82;;
76403;SDS011;65232;48.358;2.122;2023-04-03T01:28:28;13.20;;;9.20;;
76403;SDS011;65232;48.358;2.122;2023-04-03T01:28:59;11.07;;;8.13;;
76403;SDS011;65232;48.358;2.122;2023-04-03T01:29:25;12.50;;;8.90;;
76403;SDS011;65232;48.358;2.122;2023-04-03T01:29:51;13.52;;;9.00;;
76403;SDS011;65232;48.358;2.122;2023-04-03T01:30:17;13.77;;;9.18;;
76403;SDS011;65232;48.358;2.122;2023-04-03T01:32:14;11.60;;;8.15;;
76403;SDS011;65232;48.358;2.122;2023-04-03T01:32:41;11.50;;;7.70;;
76403;SDS011;65232;48.358;2.122;2023-04-03T01:33:06;11.32;;;8.13;;
76403;SDS011;65232;48.358;2.122;2023-04-03T01:33:32;12.27;;;8.70;;
76403;SDS011;65232;48.358;2.122;2023-04-03T01:33:58;12.23;;;7.80;;
76403;SDS011;65232;48.358;2.122;2023-04-03T01:34:49;10.90;;;8.15;;
76403;SDS011;65232;48.358;2.122;2023-04-03T01:35:15;11.02;;;7.75;;
76403;SDS011;65232;48.358;2.122;2023-04-03T01:35:40;12.82;;;8.55;;
76403;SDS011;65232;48.358;2.122;2023-04-03T01:36:06;12.55;;;8.63;;
76403;SDS011;65232;48.358;2.122;2023-04-03T01:36:32;13.68;;;8.57;;
76403;SDS011;65232;48.358;2.122;2023-04-03T01:36:57;12.85;;;8.88;;
76403;SDS011;65232;48.358;2.122;2023-04-03T01:37:23;14.35;;;9.00;;
76403;SDS011;65232;48.358;2.122;2023-04-03T01:37:48;12.27;;;8.25;;
76403;SDS011;65232;48.358;2.122;2023-04-03T01:38:14;12.18;;;8.65;;
76403;SDS011;65232;48.358;2.122;2023-04-03T01:39:06;14.82;;;8.35;;
76403;SDS011;65232;48.358;2.122;2023-04-03T01:39:32;11.55;;;8.43;;
76403;SDS011;65232;48.358;2.122;2023-04-03T01:40:24;11.43;;;8.02;;
76403;SDS011;65232;48.358;2.122;2023-04-03T01:40:49;13.43;;;8.57;;
76403;SDS011;65232;48.358;2.122;2023-04-03T01:41:15;11.95;;;8.52;;
76403;SDS011;65232;48.358;2.122;2023-04-03T01:41:43;13.15;;;8.50;;
76403;SDS011;65232;48.358;2.122;2023-04-03T01:42:16;12.13;;;8.35;;
76403;SDS011;65232;48.358;2.122;2023-04-03T01:43:08;12.43;;;8.23;;
76403;SDS011;65232;48.358;2.122;2023-04-03T01:43:34;12.23;;;8.23;;
76403;SDS011;65232;48.358;2.122;2023-04-03T01:43:59;11.90;;;7.88;;
76403;SDS011;65232;48.358;2.122;2023-04-03T01:44:25;14.00;;;9.18;;
76403;SDS011;65232;48.358;2.122;2023-04-03T01:44:50;13.40;;;8.02;;
76403;SDS011;65232;48.358;2.122;2023-04-03T01:45:16;13.38;;;8.73;;
76403;SDS011;65232;48.358;2.122;2023-04-03T01:45:41;12.07;;;8.52;;
76403;SDS011;65232;48.358;2.122;2023-04-03T01:46:07;12.23;;;8.85;;
76403;SDS011;65232;48.358;2.122;2023-04-03T01:46:32;13.43;;;8.57;;
76403;SDS011;65232;48.358;2.122;2023-04-03T01:46:58;13.40;;;9.07;;
76403;SDS011;65232;48.358;2.122;2023-04-03T01:47:25;11.20;;;8.38;;
76403;SDS011;65232;48.358;2.122;2023-04-03T01:47:51;12.80;;;8.90;;
76403;SDS011;65232;48.358;2.122;2023-04-03T01:48:16;13.32;;;9.25;;
76403;SDS011;65232;48.358;2.122;2023-04-03T01:48:42;13.15;;;8.90;;
76403;SDS011;65232;48.358;2.122;2023-04-03T01:49:09;11.93;;;8.85;;
76403;SDS011;65232;48.358;2.122;2023-04-03T01:49:34;12.63;;;8.63;;
76403;SDS011;65232;48.358;2.122;2023-04-03T01:50:00;13.98;;;9.43;;
76403;SDS011;65232;48.358;2.122;2023-04-03T01:50:28;13.50;;;9.13;;
76403;SDS011;65232;48.358;2.122;2023-04-03T01:50:53;12.25;;;8.80;;
76403;SDS011;65232;48.358;2.122;2023-04-03T01:51:19;12.73;;;8.98;;
76403;SDS011;65232;48.358;2.122;2023-04-03T01:51:45;13.68;;;9.15;;
76403;SDS011;65232;48.358;2.122;2023-04-03T01:52:10;12.10;;;8.93;;
76403;SDS011;65232;48.358;2.122;2023-04-03T01:52:36;12.93;;;9.10;;
76403;SDS011;65232;48.358;2.122;2023-04-03T01:53:01;12.45;;;8.52;;
76403;SDS011;65232;48.358;2.122;2023-04-03T01:53:27;15.00;;;8.68;;
76403;SDS011;65232;48.358;2.122;2023-04-03T01:53:52;14.02;;;9.30;;
76403;SDS011;65232;48.358;2.122;2023-04-03T01:54:18;13.30;;;8.88;;
76403;SDS011;65232;48.358;2.122;2023-04-03T01:54:44;10.80;;;8.20;;
76403;SDS011;65232;48.358;2.122;2023-04-03T01:55:09;12.75;;;9.23;;
76403;SDS011;65232;48.358;2.122;2023-04-03T01:55:35;12.90;;;8.05;;
76403;SDS011;65232;48.358;2.122;2023-04-03T01:56:00;11.88;;;8.65;;
76403;SDS011;65232;48.358;2.122;2023-04-03T01:56:26;11.63;;;8.25;;
76403;SDS011;65232;48.358;2.122;2023-04-03T01:56:52;13.32;;;8.30;;
76403;SDS011;65232;48.358;2.122;2023-04-03T01:57:18;11.15;;;8.57;;
76403;SDS011;65232;48.358;2.122;2023-04-03T01:57:44;11.90;;;8.80;;
76403;SDS011;65232;48.358;2.122;2023-04-03T01:58:09;11.02;;;8.52;;
76403;SDS011;65232;48.358;2.122;2023-04-03T01:58:35;12.75;;;8.98;;
76403;SDS011;65232;48.358;2.122;2023-04-03T01:59:01;12.05;;;8.68;;
76403;SDS011;65232;48.358;2.122;2023-04-03T01:59:26;13.85;;;8.82;;
76403;SDS011;65232;48.358;2.122;2023-04-03T01:59:52;11.90;;;8.20;;
76403;SDS011;65232;48.358;2.122;2023-04-03T02:00:17;12.38;;;8.38;;
76403;SDS011;65232;48.358;2.122;2023-04-03T02:00:43;13.77;;;8.95;;
76403;SDS011;65232;48.358;2.122;2023-04-03T02:01:09;14.23;;;9.25;;
76403;SDS011;65232;48.358;2.122;2023-04-03T02:01:34;12.25;;;8.65;;
76403;SDS011;65232;48.358;2.122;2023-04-03T02:02:00;12.00;;;8.30;;
76403;SDS011;65232;48.358;2.122;2023-04-03T02:02:25;13.07;;;8.68;;
76403;SDS011;65232;48.358;2.122;2023-04-03T02:02:51;13.98;;;8.68;;
76403;SDS011;65232;48.358;2.122;2023-04-03T02:03:16;13.25;;;8.88;;
76403;SDS011;65232;48.358;2.122;2023-04-03T02:03:42;11.98;;;8.55;;
76403;SDS011;65232;48.358;2.122;2023-04-03T02:04:07;12.30;;;8.57;;
76403;SDS011;65232;48.358;2.122;2023-04-03T02:04:33;12.93;;;8.55;;
76403;SDS011;65232;48.358;2.122;2023-04-03T02:04:58;11.55;;;8.32;;
76403;SDS011;65232;48.358;2.122;2023-04-03T02:05:24;14.20;;;9.35;;
76403;SDS011;65232;48.358;2.122;2023-04-03T02:05:49;14.20;;;9.30;;
76403;SDS011;65232;48.358;2.122;2023-04-03T02:06:15;13.27;;;9.10;;
76403;SDS011;65232;48.358;2.122;2023-04-03T02:06:40;14.13;;;8.73;;
76403;SDS011;65232;48.358;2.122;2023-04-03T02:07:06;11.82;;;9.05;;
76403;SDS011;65232;48.358;2.122;2023-04-03T02:07:32;12.02;;;8.57;;
76403;SDS011;65232;48.358;2.122;2023-04-03T02:07:57;14.57;;;9.60;;
76403;SDS011;65232;48.358;2.122;2023-04-03T02:08:23;16.83;;;9.43;;
76403;SDS011;65232;48.358;2.122;2023-04-03T02:08:48;13.15;;;9.13;;
76403;SDS011;65232;48.358;2.122;2023-04-03T02:09:14;13.35;;;8.95;;
76403;SDS011;65232;48.358;2.122;2023-04-03T02:09:40;12.90;;;9.05;;
76403;SDS011;65232;48.358;2.122;2023-04-03T02:10:05;12.05;;;9.05;;
76403;SDS011;65232;48.358;2.122;2023-04-03T02:10:31;13.15;;;8.57;;
76403;SDS011;65232;48.358;2.122;2023-04-03T02:10:57;13.88;;;9.13;;
76403;SDS011;65232;48.358;2.122;2023-04-03T02:11:22;13.90;;;9.15;;
76403;SDS011;65232;48.358;2.122;2023-04-03T02:11:48;12.50;;;8.35;;
76403;SDS011;65232;48.358;2.122;2023-04-03T02:12:13;13.65;;;9.48;;
76403;SDS011;65232;48.358;2.122;2023-04-03T02:12:39;12.57;;;8.70;;
76403;SDS011;65232;48.358;2.122;2023-04-03T02:13:04;12.73;;;8.63;;
76403;SDS011;65232;48.358;2.122;2023-04-03T02:13:30;16.75;;;9.65;;
76403;SDS011;65232;48.358;2.122;2023-04-03T02:13:55;13.88;;;9.15;;
76403;SDS011;65232;48.358;2.122;2023-04-03T02:14:21;11.18;;;8.48;;
76403;SDS011;65232;48.358;2.122;2023-04-03T02:14:48;12.10;;;8.13;;
76403;SDS011;65232;48.358;2.122;2023-04-03T02:15:14;14.88;;;9.13;;
76403;SDS011;65232;48.358;2.122;2023-04-03T02:15:40;13.55;;;8.77;;
76403;SDS011;65232;48.358;2.122;2023-04-03T02:16:06;15.48;;;9.25;;
76403;SDS011;65232;48.358;2.122;2023-04-03T02:16:33;12.25;;;8.68;;
76403;SDS011;65232;48.358;2.122;2023-04-03T02:17:00;13.27;;;9.57;;
76403;SDS011;65232;48.358;2.122;2023-04-03T02:17:26;13.45;;;9.43;;
76403;SDS011;65232;48.358;2.122;2023-04-03T02:17:53;13.35;;;8.90;;
76403;SDS011;65232;48.358;2.122;2023-04-03T02:18:19;14.38;;;9.07;;
76403;SDS011;65232;48.358;2.122;2023-04-03T02:18:45;13.13;;;8.80;;
76403;SDS011;65232;48.358;2.122;2023-04-03T02:19:10;15.18;;;8.68;;
76403;SDS011;65232;48.358;2.122;2023-04-03T02:19:36;11.70;;;8.27;;
76403;SDS011;65232;48.358;2.122;2023-04-03T02:20:01;11.98;;;8.45;;
76403;SDS011;65232;48.358;2.122;2023-04-03T02:20:28;13.25;;;8.55;;
76403;SDS011;65232;48.358;2.122;2023-04-03T02:20:53;13.57;;;8.63;;
76403;SDS011;65232;48.358;2.122;2023-04-03T02:21:19;10.73;;;8.70;;
76403;SDS011;65232;48.358;2.122;2023-04-03T02:21:44;13.82;;;8.75;;
76403;SDS011;65232;48.358;2.122;2023-04-03T02:22:10;14.95;;;9.10;;
76403;SDS011;65232;48.358;2.122;2023-04-03T02:22:35;14.25;;;9.60;;
76403;SDS011;65232;48.358;2.122;2023-04-03T02:23:01;12.52;;;9.10;;
76403;SDS011;65232;48.358;2.122;2023-04-03T02:23:27;13.80;;;8.98;;
76403;SDS011;65232;48.358;2.122;2023-04-03T02:23:53;12.50;;;8.95;;
76403;SDS011;65232;48.358;2.122;2023-04-03T02:24:18;12.60;;;9.57;;
76403;SDS011;65232;48.358;2.122;2023-04-03T02:24:44;12.63;;;9.20;;
76403;SDS011;65232;48.358;2.122;2023-04-03T02:25:09;12.90;;;8.52;;
76403;SDS011;65232;48.358;2.122;2023-04-03T02:25:35;11.65;;;8.40;;
76403;SDS011;65232;48.358;2.122;2023-04-03T02:26:04;12.57;;;8.93;;
76403;SDS011;65232;48.358;2.122;2023-04-03T02:26:32;13.38;;;9.00;;
76403;SDS011;65232;48.358;2.122;2023-04-03T02:26:57;12.90;;;8.68;;
76403;SDS011;65232;48.358;2.122;2023-04-03T02:27:23;14.35;;;9.30;;
76403;SDS011;65232;48.358;2.122;2023-04-03T02:27:48;13.70;;;8.95;;
76403;SDS011;65232;48.358;2.122;2023-04-03T02:28:14;12.95;;;8.55;;
76403;SDS011;65232;48.358;2.122;2023-04-03T02:28:39;13.57;;;9.18;;
76403;SDS011;65232;48.358;2.122;2023-04-03T02:29:06;15.95;;;9.68;;
76403;SDS011;65232;48.358;2.122;2023-04-03T02:29:31;14.13;;;8.73;;
76403;SDS011;65232;48.358;2.122;2023-04-03T02:29:57;14.75;;;8.85;;
76403;SDS011;65232;48.358;2.122;2023-04-03T02:30:22;13.98;;;9.57;;
76403;SDS011;65232;48.358;2.122;2023-04-03T02:30:48;12.93;;;8.75;;
76403;SDS011;65232;48.358;2.122;2023-04-03T02:31:14;13.82;;;9.27;;
76403;SDS011;65232;48.358;2.122;2023-04-03T02:31:41;14.13;;;9.65;;
76403;SDS011;65232;48.358;2.122;2023-04-03T02:32:07;12.88;;;8.55;;
76403;SDS011;65232;48.358;2.122;2023-04-03T02:32:32;12.55;;;8.82;;
76403;SDS011;65232;48.358;2.122;2023-04-03T02:32:58;13.00;;;8.52;;
76403;SDS011;65232;48.358;2.122;2023-04-03T02:33:50;14.02;;;8.68;;
76403;SDS011;65232;48.358;2.122;2023-04-03T02:34:16;14.20;;;8.88;;
76403;SDS011;65232;48.358;2.122;2023-04-03T02:34:43;14.98;;;9.30;;
76403;SDS011;65232;48.358;2.122;2023-04-03T02:35:10;13.00;;;8.93;;
76403;SDS011;65232;48.358;2.122;2023-04-03T02:35:37;15.13;;;9.48;;
76403;SDS011;65232;48.358;2.122;2023-04-03T02:36:04;13.65;;;8.52;;
76403;SDS011;65232;48.358;2.122;2023-04-03T02:36:31;12.20;;;9.30;;
76403;SDS011;65232;48.358;2.122;2023-04-03T02:36:58;16.83;;;9.10;;
76403;SDS011;65232;48.358;2.122;2023-04-03T02:37:24;12.45;;;8.65;;
76403;SDS011;65232;48.358;2.122;2023-04-03T02:37:51;13.30;;;9.50;;
76403;SDS011;65232;48.358;2.122;2023-04-03T02:38:17;13.43;;;8.73;;
76403;SDS011;65232;48.358;2.122;2023-04-03T02:38:43;14.32;;;9.07;;
76403;SDS011;65232;48.358;2.122;2023-04-03T02:39:09;12.82;;;8.70;;
76403;SDS011;65232;48.358;2.122;2023-04-03T02:39:35;14.48;;;9.18;;
76403;SDS011;65232;48.358;2.122;2023-04-03T02:40:00;13.93;;;8.70;;
76403;SDS011;65232;48.358;2.122;2023-04-03T02:40:27;13.05;;;8.70;;
76403;SDS011;65232;48.358;2.122;2023-04-03T02:40:52;11.93;;;9.00;;
76403;SDS011;65232;48.358;2.122;2023-04-03T02:41:18;13.63;;;9.38;;
76403;SDS011;65232;48.358;2.122;2023-04-03T02:41:46;14.25;;;9.00;;
76403;SDS011;65232;48.358;2.122;2023-04-03T02:42:17;13.65;;;8.95;;
76403;SDS011;65232;48.358;2.122;2023-04-03T02:42:43;14.70;;;9.57;;
76403;SDS011;65232;48.358;2.122;2023-04-03T02:43:08;14.57;;;9.73;;
76403;SDS011;65232;48.358;2.122;2023-04-03T02:43:36;11.85;;;8.82;;
76403;SDS011;65232;48.358;2.122;2023-04-03T02:44:03;15.18;;;9.48;;
76403;SDS011;65232;48.358;2.122;2023-04-03T02:44:30;10.85;;;8.63;;
76403;SDS011;65232;48.358;2.122;2023-04-03T02:44:56;14.98;;;9.38;;
76403;SDS011;65232;48.358;2.122;2023-04-03T02:45:22;12.95;;;9.20;;
76403;SDS011;65232;48.358;2.122;2023-04-03T02:45:47;13.23;;;9.05;;
76403;SDS011;65232;48.358;2.122;2023-04-03T02:46:13;12.90;;;9.50;;
76403;SDS011;65232;48.358;2.122;2023-04-03T02:46:40;15.63;;;9.57;;
76403;SDS011;65232;48.358;2.122;2023-04-03T02:47:05;14.88;;;8.88;;